Time;durP1;ratioP1;P1;durP2;ratioP2;P2;SDS_P1;SDS_P2;PMS_P1;PMS_P2;Temp;Humidity;BMP_temperature;BMP_pressure;BME280_temperature;BME280_humidity;BME280_pressure;Samples;Min_cycle;Max_cycle;Signal;HPM_P1;HPM_P2
2020/12/19 00:02:18;;;;;;;16.07;14.47;;;2.70;99.90;;;3.48;88.64;98365.00;5187359;28;20690;-76
2020/12/19 00:04:49;;;;;;;15.33;13.93;;;2.80;99.90;;;3.49;88.58;98355.78;5187356;28;20246;-77
2020/12/19 00:07:22;;;;;;;12.70;11.50;;;2.70;99.90;;;3.48;88.49;98354.91;5187452;28;20206;-77
2020/12/19 00:09:55;;;;;;;12.10;11.00;;;2.70;99.90;;;3.48;88.29;98349.84;5187555;28;20203;-76
2020/12/19 00:12:27;;;;;;;12.50;11.23;;;2.60;99.90;;;3.59;87.82;98351.72;5187557;28;20224;-77
2020/12/19 00:14:59;;;;;;;12.73;11.53;;;2.60;99.90;;;3.53;87.75;98351.16;5186971;28;20221;-76
2020/12/19 00:17:31;;;;;;;13.50;12.13;;;2.70;99.90;;;3.51;88.52;98352.66;5186751;28;20224;-76
2020/12/19 00:20:03;;;;;;;15.70;14.27;;;2.80;99.90;;;3.55;88.73;98348.78;5187035;28;20201;-76
2020/12/19 00:22:35;;;;;;;14.33;13.00;;;2.80;99.90;;;3.55;89.28;98343.75;5186644;28;20196;-76
2020/12/19 00:25:08;;;;;;;15.90;14.30;;;2.80;99.90;;;3.54;88.87;98336.88;5186700;28;20220;-77
2020/12/19 00:27:40;;;;;;;15.87;14.27;;;2.80;99.90;;;3.50;89.84;98334.84;5187127;28;20200;-76
2020/12/19 00:30:13;;;;;;;16.60;14.90;;;2.80;99.90;;;3.48;89.94;98334.69;5187125;28;20197;-77
2020/12/19 00:32:44;;;;;;;15.60;14.17;;;2.80;99.90;;;3.50;89.32;98330.69;5187340;28;20217;-76
2020/12/19 00:35:16;;;;;;;14.93;13.43;;;2.80;99.90;;;3.48;88.83;98324.56;5186679;28;20216;-77
2020/12/19 00:37:48;;;;;;;14.07;12.63;;;2.70;99.90;;;3.43;89.23;98327.44;5186417;28;20602;-76
2020/12/19 00:40:21;;;;;;;15.60;14.20;;;2.70;99.90;;;3.38;89.15;98325.38;5187064;28;20197;-76
2020/12/19 00:42:53;;;;;;;15.20;13.67;;;2.70;99.90;;;3.41;89.67;98319.72;5186870;28;20202;-80
2020/12/19 00:45:26;;;;;;;14.33;13.03;;;2.70;99.90;;;3.38;89.78;98316.94;5186806;28;20226;-76
2020/12/19 00:47:58;;;;;;;15.77;14.17;;;2.70;99.90;;;3.49;89.49;98313.75;5186631;28;20195;-77
2020/12/19 00:50:30;;;;;;;14.87;13.37;;;2.70;99.90;;;3.37;89.40;98321.06;5172048;28;20693;-76
2020/12/19 00:53:02;;;;;;;15.53;14.03;;;2.70;99.90;;;3.34;89.59;98310.69;5186656;28;20202;-77
2020/12/19 00:55:35;;;;;;;16.77;14.97;;;2.70;99.90;;;3.31;90.05;98312.03;5186317;28;20233;-77
2020/12/19 00:58:07;;;;;;;15.83;14.33;;;2.70;99.90;;;3.32;89.92;98299.56;5186869;28;20230;-77
2020/12/19 01:00:39;;;;;;;16.80;15.10;;;2.60;99.90;;;3.33;90.28;98306.38;5186408;28;20198;-77
2020/12/19 01:03:11;;;;;;;16.30;14.77;;;2.60;99.90;;;3.32;90.14;98306.22;5186456;28;20290;-77
2020/12/19 01:05:43;;;;;;;16.37;14.83;;;2.60;99.90;;;3.33;90.04;98310.56;5186069;28;20595;-76
2020/12/19 01:08:15;;;;;;;17.30;15.50;;;2.70;99.90;;;3.31;90.56;98304.47;5185922;28;20561;-77
2020/12/19 01:10:48;;;;;;;16.43;14.83;;;2.70;99.90;;;3.30;90.83;98300.16;5186192;28;20213;-77
2020/12/19 01:13:20;;;;;;;16.97;15.23;;;2.60;99.90;;;3.32;90.02;98303.69;5185781;28;20203;-77
2020/12/19 01:15:52;;;;;;;17.50;15.80;;;2.60;99.90;;;3.27;89.61;98299.88;5186098;28;20230;-76
2020/12/19 01:18:25;;;;;;;15.63;14.03;;;2.60;99.90;;;3.30;90.23;98297.66;5166147;28;20309;-76
2020/12/19 01:20:56;;;;;;;16.40;14.80;;;2.60;99.90;;;3.26;90.09;98303.16;5182622;28;20198;-76
2020/12/19 01:23:28;;;;;;;16.60;14.80;;;2.60;99.90;;;3.30;90.14;98295.13;5185549;28;20243;-76
2020/12/19 01:26:03;;;;;;;16.73;15.20;;;2.60;99.90;;;3.28;89.72;98300.00;5185389;28;20199;-77
2020/12/19 01:28:35;;;;;;;16.60;15.03;;;2.60;99.90;;;3.28;90.33;98304.19;5186170;28;20205;-76
2020/12/19 01:31:10;;;;;;;16.03;14.53;;;2.60;99.90;;;3.22;89.79;98306.16;5186083;28;20201;-76
2020/12/19 01:33:42;;;;;;;17.63;15.83;;;2.50;99.90;;;3.12;90.21;98309.47;5185643;28;20213;-77
2020/12/19 01:36:20;;;;;;;16.70;15.10;;;2.50;99.90;;;3.15;90.56;98304.69;5185619;28;20675;-76
2020/12/19 01:38:52;;;;;;;16.27;14.67;;;2.50;99.90;;;3.09;89.95;98299.97;5185750;28;20222;-77
2020/12/19 01:41:26;;;;;;;17.40;15.67;;;2.50;99.90;;;3.12;90.89;98289.28;5185009;28;20202;-77
2020/12/19 01:43:59;;;;;;;15.73;14.00;;;2.50;99.90;;;3.18;90.48;98299.94;5185509;28;20684;-76
2020/12/19 01:46:47;;;;;;;16.33;14.73;;;2.50;99.90;;;3.16;90.39;98294.72;5181932;28;20199;-77
2020/12/19 01:49:21;;;;;;;16.47;14.73;;;2.50;99.90;;;3.17;90.28;98298.13;5178986;28;20253;-77
2020/12/19 01:51:56;;;;;;;17.03;15.33;;;2.50;99.90;;;3.20;90.04;98302.59;5185295;28;20202;-75
2020/12/19 01:54:30;;;;;;;17.67;15.77;;;2.50;99.90;;;3.15;90.05;98298.00;5184930;28;20236;-76
2020/12/19 01:57:03;;;;;;;16.63;15.13;;;2.50;99.90;;;3.21;90.04;98294.28;5185056;28;20222;-76
2020/12/19 01:59:35;;;;;;;16.10;14.50;;;2.50;99.90;;;3.16;89.61;98293.84;5184170;28;20201;-77
2020/12/19 02:02:08;;;;;;;16.57;14.83;;;2.50;99.90;;;3.11;89.56;98288.34;5185548;28;20754;-76
2020/12/19 02:04:40;;;;;;;16.47;14.77;;;2.40;99.90;;;3.13;89.93;98279.28;5184458;28;20220;-77
2020/12/19 02:07:12;;;;;;;17.50;15.80;;;2.50;99.90;;;3.08;89.88;98283.03;5184898;28;20216;-77
2020/12/19 02:09:45;;;;;;;15.70;13.87;;;2.50;99.90;;;3.10;90.19;98276.50;5184680;28;20222;-76
2020/12/19 02:12:18;;;;;;;16.27;14.77;;;2.50;99.90;;;3.17;90.63;98277.94;5185308;28;20194;-77
2020/12/19 02:14:50;;;;;;;15.83;14.23;;;2.50;99.90;;;3.19;89.80;98273.03;5184670;28;20222;-77
2020/12/19 02:17:22;;;;;;;15.47;13.97;;;2.50;99.90;;;3.12;89.63;98269.94;5185080;28;20229;-75
2020/12/19 02:19:54;;;;;;;15.50;13.90;;;2.50;99.90;;;3.08;89.98;98277.09;5185191;28;20202;-77
2020/12/19 02:22:26;;;;;;;15.83;14.23;;;2.40;99.90;;;3.05;90.57;98270.13;5185032;28;20202;-76
2020/12/19 02:24:59;;;;;;;16.10;14.60;;;2.40;99.90;;;3.03;90.14;98268.19;5183482;28;20214;-76
2020/12/19 02:27:31;;;;;;;15.33;14.00;;;2.40;99.90;;;3.09;90.09;98267.16;5184941;28;20210;-76
2020/12/19 02:30:03;;;;;;;15.67;14.27;;;2.40;99.90;;;3.12;90.24;98269.94;5184548;28;20202;-76
2020/12/19 02:32:35;;;;;;;15.37;13.93;;;2.50;99.90;;;3.09;90.16;98264.63;5185035;28;20202;-77
2020/12/19 02:35:07;;;;;;;16.43;14.93;;;2.50;99.90;;;3.09;90.71;98259.56;5184603;28;20229;-76
2020/12/19 02:37:39;;;;;;;15.73;14.17;;;2.40;99.90;;;3.08;89.92;98257.78;5184822;28;20222;-77
2020/12/19 02:40:12;;;;;;;15.17;13.67;;;2.40;99.90;;;3.02;89.55;98259.75;5184679;28;20194;-77
2020/12/19 02:42:44;;;;;;;14.77;12.83;;;2.40;99.90;;;3.04;89.85;98260.78;5184278;28;20202;-76
2020/12/19 02:45:16;;;;;;;16.30;14.60;;;2.40;99.90;;;3.02;90.15;98264.78;5184329;28;20710;-76
2020/12/19 02:47:48;;;;;;;14.50;13.00;;;2.40;99.90;;;3.03;89.95;98256.44;5185103;28;20187;-76
2020/12/19 02:50:20;;;;;;;15.53;14.03;;;2.40;99.90;;;3.10;89.79;98256.28;5183720;28;20202;-77
2020/12/19 02:52:52;;;;;;;16.63;15.03;;;2.40;99.90;;;3.06;90.28;98259.28;5184545;28;20202;-76
2020/12/19 02:55:25;;;;;;;15.70;14.20;;;2.40;99.90;;;3.00;89.75;98253.66;5183730;28;20216;-77
2020/12/19 02:57:57;;;;;;;16.03;14.53;;;2.40;99.90;;;2.98;89.43;98256.81;5184369;28;20686;-76
2020/12/19 03:00:29;;;;;;;15.60;14.00;;;2.30;99.90;;;2.94;89.20;98253.09;5184490;28;20674;-76
2020/12/19 03:03:01;;;;;;;14.83;13.43;;;2.30;99.90;;;2.97;89.92;98247.44;5184606;28;20198;-76
2020/12/19 03:05:33;;;;;;;14.50;13.10;;;2.30;99.90;;;2.97;89.92;98245.78;5184558;28;20228;-76
2020/12/19 03:08:05;;;;;;;14.93;13.50;;;2.30;99.90;;;2.99;89.33;98251.88;5183991;28;20571;-76
2020/12/19 03:10:38;;;;;;;14.47;13.17;;;2.30;99.90;;;3.05;88.86;98246.50;5184493;28;20214;-76
2020/12/19 03:13:10;;;;;;;14.47;12.97;;;2.40;99.90;;;3.03;88.73;98246.34;5184366;28;20203;-76
2020/12/19 03:15:42;;;;;;;14.67;13.37;;;2.30;99.90;;;3.05;89.18;98241.47;5184459;28;20219;-76
2020/12/19 03:18:14;;;;;;;15.10;13.63;;;2.40;99.90;;;3.04;89.26;98240.56;5184432;28;20219;-75
2020/12/19 03:20:46;;;;;;;15.43;14.00;;;2.30;99.90;;;3.03;89.06;98241.31;5184629;28;20205;-77
2020/12/19 03:23:19;;;;;;;14.10;12.80;;;2.40;99.90;;;3.00;89.43;98241.03;5184280;28;20633;-76
2020/12/19 03:25:52;;;;;;;13.17;11.87;;;2.40;99.90;;;3.03;89.25;98248.00;5183858;28;20218;-77
2020/12/19 03:28:25;;;;;;;13.17;11.97;;;2.30;99.90;;;3.07;88.67;98247.56;5184318;28;20202;-76
2020/12/19 03:30:57;;;;;;;13.63;12.40;;;2.30;99.90;;;3.04;88.35;98240.56;5184940;28;20662;-76
2020/12/19 03:33:28;;;;;;;13.87;12.67;;;2.30;99.90;;;2.92;88.46;98244.50;5183938;28;20209;-76
2020/12/19 03:36:01;;;;;;;12.63;11.53;;;2.20;99.90;;;2.84;88.87;98245.44;5184385;28;20199;-76
2020/12/19 03:38:33;;;;;;;14.73;13.23;;;2.10;99.90;;;2.79;88.98;98236.53;5184135;28;20222;-76
2020/12/19 03:41:05;;;;;;;13.87;12.57;;;2.10;99.90;;;2.82;88.73;98241.88;5184205;28;20195;-76
2020/12/19 03:43:37;;;;;;;14.50;13.10;;;2.10;99.90;;;2.79;88.89;98236.53;5183575;28;20711;-76
2020/12/19 03:46:11;;;;;;;14.10;12.67;;;2.10;99.90;;;2.73;88.79;98231.81;5184618;28;20610;-76
2020/12/19 03:48:43;;;;;;;13.87;12.57;;;2.10;99.90;;;2.68;88.84;98233.88;5184092;28;20588;-76
2020/12/19 03:51:15;;;;;;;13.47;12.20;;;2.00;99.90;;;2.66;88.98;98235.41;5184518;28;20198;-75
2020/12/19 03:53:47;;;;;;;14.50;13.20;;;2.00;99.90;;;2.70;88.96;98229.88;5183139;28;20218;-76
2020/12/19 03:56:20;;;;;;;14.10;12.70;;;2.00;99.90;;;2.71;89.56;98226.59;5185413;28;20647;-76
2020/12/19 03:58:52;;;;;;;14.27;12.97;;;2.10;99.90;;;2.66;88.86;98227.84;5187795;28;20229;-77
2020/12/19 04:01:24;;;;;;;13.87;12.43;;;2.00;99.90;;;2.65;89.04;98222.63;5187808;28;20211;-76
2020/12/19 04:03:56;;;;;;;13.97;12.67;;;2.00;99.90;;;2.56;89.53;98216.72;5187158;28;20224;-76
2020/12/19 04:06:28;;;;;;;14.40;13.10;;;2.00;99.90;;;2.60;89.35;98213.72;5187118;28;20194;-76
2020/12/19 04:09:00;;;;;;;14.77;13.40;;;2.00;99.90;;;2.67;89.25;98216.97;5187932;28;20200;-76
2020/12/19 04:11:33;;;;;;;13.70;12.30;;;2.00;99.90;;;2.65;88.88;98213.41;5186599;28;20206;-76
2020/12/19 04:14:05;;;;;;;13.97;12.70;;;2.00;99.90;;;2.61;89.72;98207.97;5186824;28;20218;-76
2020/12/19 04:16:37;;;;;;;13.37;12.07;;;2.00;99.90;;;2.60;88.97;98214.63;5186796;28;20201;-76
2020/12/19 04:19:09;;;;;;;14.07;12.70;;;2.00;99.90;;;2.62;88.96;98205.56;5187318;28;20231;-76
2020/12/19 04:21:41;;;;;;;13.20;12.00;;;2.00;99.90;;;2.58;89.31;98211.09;5187808;28;20209;-76
2020/12/19 04:24:13;;;;;;;13.43;12.23;;;1.90;99.90;;;2.58;89.83;98211.09;5186526;28;20220;-76
2020/12/19 04:26:46;;;;;;;12.67;11.47;;;1.90;99.90;;;2.51;89.62;98203.69;5186057;28;20213;-76
2020/12/19 04:29:18;;;;;;;13.00;11.87;;;1.90;99.90;;;2.60;88.66;98208.69;5186638;28;20589;-76
2020/12/19 04:31:50;;;;;;;12.83;11.63;;;1.90;99.90;;;2.56;88.70;98210.03;5187288;28;20202;-76
2020/12/19 04:34:24;;;;;;;12.33;11.23;;;1.90;99.90;;;2.49;89.21;98202.66;5186999;28;20234;-76
2020/12/19 04:36:56;;;;;;;12.73;11.57;;;1.90;99.90;;;2.50;89.88;98206.97;5186921;28;20209;-76
2020/12/19 04:39:28;;;;;;;11.93;10.73;;;1.80;99.90;;;2.49;89.77;98212.75;5185530;28;20211;-76
2020/12/19 04:42:01;;;;;;;13.33;12.13;;;1.90;99.90;;;2.53;89.08;98213.94;5186883;28;20670;-77
2020/12/19 04:44:33;;;;;;;13.43;12.20;;;1.90;99.90;;;2.51;89.68;98210.38;5186750;28;20340;-76
2020/12/19 04:47:05;;;;;;;12.53;11.43;;;1.90;99.90;;;2.52;89.09;98204.56;5186643;28;20199;-77
2020/12/19 04:49:37;;;;;;;11.77;10.70;;;1.80;99.90;;;2.51;89.37;98218.81;5186053;28;20197;-77
2020/12/19 04:52:10;;;;;;;12.53;11.43;;;1.80;99.90;;;2.40;89.54;98209.34;5186591;28;20195;-76
2020/12/19 04:54:42;;;;;;;12.17;11.17;;;1.80;99.90;;;2.42;90.01;98217.97;5186047;28;20222;-77
2020/12/19 04:57:19;;;;;;;13.90;12.60;;;1.70;99.90;;;2.38;88.70;98213.38;5187225;28;20199;-76
2020/12/19 04:59:52;;;;;;;13.70;12.33;;;1.70;99.90;;;2.42;89.47;98212.91;5186571;28;20217;-76
2020/12/19 05:02:24;;;;;;;13.57;12.27;;;1.70;99.90;;;2.42;89.25;98217.97;5186086;28;20211;-77
2020/12/19 05:05:05;;;;;;;13.77;12.20;;;1.70;99.90;;;2.42;89.25;98217.97;5185948;28;20222;-76
2020/12/19 05:07:46;;;;;;;13.57;12.43;;;1.70;99.90;;;2.38;89.44;98220.94;5185610;28;20202;-76
2020/12/19 05:10:18;;;;;;;12.20;11.10;;;1.70;99.90;;;2.37;89.62;98209.06;5186083;28;20228;-76
2020/12/19 05:12:54;;;;;;;13.67;12.40;;;1.70;99.90;;;2.35;89.43;98216.50;5186504;28;20200;-77
2020/12/19 05:15:26;;;;;;;13.60;12.50;;;1.70;99.90;;;2.35;89.48;98215.63;5185671;28;20225;-76
2020/12/19 05:18:00;;;;;;;11.97;10.87;;;1.70;99.90;;;2.32;88.76;98213.69;5186066;28;20583;-76
2020/12/19 05:20:32;;;;;;;13.40;12.07;;;1.70;99.90;;;2.31;89.19;98211.00;5186862;28;20202;-76
2020/12/19 05:23:08;;;;;;;12.50;11.37;;;1.60;99.90;;;2.26;89.55;98215.63;5185227;28;20678;-76
2020/12/19 05:25:40;;;;;;;12.30;11.20;;;1.60;99.90;;;2.25;89.30;98218.88;5185564;28;20229;-76
2020/12/19 05:28:16;;;;;;;13.13;11.93;;;1.60;99.90;;;2.25;89.29;98219.78;5185759;28;20215;-77
2020/12/19 05:30:50;;;;;;;12.20;11.07;;;1.60;99.90;;;2.24;89.38;98223.06;5185754;28;20192;-75
2020/12/19 05:33:22;;;;;;;13.40;12.20;;;1.60;99.90;;;2.19;89.49;98224.25;5185608;28;20273;-76
2020/12/19 05:35:54;;;;;;;13.40;12.00;;;1.50;99.90;;;2.20;89.25;98223.53;5185782;28;20603;-76
2020/12/19 05:38:28;;;;;;;12.20;11.10;;;1.50;99.90;;;2.21;89.10;98212.69;5186262;28;20595;-76
2020/12/19 05:41:00;;;;;;;11.67;10.77;;;1.50;99.90;;;2.21;88.58;98214.31;5185617;28;20202;-76
2020/12/19 05:43:33;;;;;;;14.00;12.70;;;1.50;99.90;;;2.24;88.88;98217.13;5185538;28;20289;-77
2020/12/19 05:46:06;;;;;;;13.03;11.93;;;1.50;99.90;;;2.20;89.48;98215.94;5185520;28;20230;-76
2020/12/19 05:48:37;;;;;;;13.20;11.80;;;1.50;99.90;;;2.21;89.17;98206.75;5185656;28;20190;-75
2020/12/19 05:51:10;;;;;;;12.93;11.73;;;1.50;99.90;;;2.19;89.27;98216.69;5185842;28;20205;-76
2020/12/19 05:53:46;;;;;;;11.60;10.57;;;1.40;99.90;;;2.19;88.32;98213.28;5184786;28;20197;-76
2020/12/19 05:56:19;;;;;;;13.13;11.90;;;1.50;99.90;;;2.15;88.48;98212.09;5185449;28;20703;-76
2020/12/19 05:58:54;;;;;;;11.80;10.87;;;1.50;99.90;;;2.19;89.12;98215.78;5185843;28;20244;-77
2020/12/19 06:01:26;;;;;;;11.23;10.13;;;1.50;99.90;;;2.19;89.11;98216.69;5185245;28;20230;-76
2020/12/19 06:04:04;;;;;;;12.13;11.03;;;1.50;99.90;;;2.17;88.21;98224.84;5185103;28;20211;-76
2020/12/19 06:06:39;;;;;;;11.93;10.93;;;1.50;99.90;;;2.10;88.76;98222.50;5185231;28;20221;-77
2020/12/19 06:09:13;;;;;;;11.87;10.87;;;1.40;99.90;;;2.12;88.24;98224.41;5185124;28;20190;-77
2020/12/19 06:11:50;;;;;;;12.63;11.43;;;1.40;99.90;;;2.14;88.15;98222.03;5185252;28;20205;-76
2020/12/19 06:14:25;;;;;;;13.07;11.90;;;1.40;99.90;;;2.01;88.97;98219.97;5185270;28;20218;-76
2020/12/19 06:17:08;;;;;;;12.47;11.27;;;1.30;99.90;;;2.02;88.50;98235.22;5185276;28;20701;-76
2020/12/19 06:19:43;;;;;;;12.17;10.97;;;1.30;99.90;;;2.01;88.99;98230.94;5184185;28;20219;-76
2020/12/19 06:22:15;;;;;;;12.23;11.13;;;1.30;99.90;;;2.04;88.88;98230.34;5183964;28;20199;-77
2020/12/19 06:24:48;;;;;;;12.20;11.07;;;1.40;99.90;;;2.07;88.74;98232.28;5183580;28;20214;-76
2020/12/19 06:27:41;;;;;;;12.53;11.33;;;1.40;99.90;;;1.99;88.51;98226.50;5183464;28;20213;-77
2020/12/19 06:30:31;;;;;;;12.70;11.43;;;1.30;99.90;;;2.03;88.47;98236.13;5184253;28;20214;-76
2020/12/19 06:33:11;;;;;;;11.93;11.03;;;1.30;99.90;;;1.92;88.62;98232.59;5163420;28;20195;-77
2020/12/19 06:35:53;;;;;;;13.03;11.73;;;1.20;99.90;;;1.94;88.10;98235.25;5181148;28;20735;-76
2020/12/19 06:38:42;;;;;;;11.40;10.43;;;1.30;99.90;;;1.94;88.03;98232.72;5183554;28;20228;-76
2020/12/19 06:41:46;;;;;;;12.73;11.73;;;1.30;99.90;;;1.96;88.37;98233.78;5183150;28;20290;-78
2020/12/19 06:44:24;;;;;;;11.63;10.53;;;1.30;99.90;;;1.94;88.51;98241.16;5184501;28;20228;-76
2020/12/19 06:47:00;;;;;;;13.87;12.57;;;1.30;99.90;;;1.98;88.45;98234.81;5183852;28;20209;-76
2020/12/19 06:49:35;;;;;;;12.87;11.70;;;1.30;99.90;;;1.92;88.47;98236.75;5184711;28;20202;-77
2020/12/19 06:52:10;;;;;;;12.57;11.43;;;1.20;99.90;;;1.96;87.58;98241.34;5183816;28;20577;-76
2020/12/19 06:54:44;;;;;;;13.17;11.90;;;1.20;99.90;;;1.92;87.87;98241.78;5183107;28;20311;-76
2020/12/19 06:57:25;;;;;;;13.30;12.10;;;1.20;99.90;;;1.88;87.37;98239.69;5184230;28;20197;-77
2020/12/19 07:00:17;;;;;;;13.03;11.90;;;1.20;99.90;;;1.86;88.39;98246.22;5183795;28;20202;-78
2020/12/19 07:02:54;;;;;;;12.43;11.43;;;1.20;99.90;;;1.83;88.58;98241.75;5184326;28;20687;-76
2020/12/19 07:05:28;;;;;;;11.73;10.73;;;1.10;99.90;;;1.87;87.99;98245.50;5182927;28;20217;-76
2020/12/19 07:08:18;;;;;;;11.50;10.40;;;1.20;99.90;;;1.83;88.35;98243.41;5183316;28;20193;-76
2020/12/19 07:10:51;;;;;;;11.50;10.50;;;1.20;99.90;;;1.79;89.01;98248.16;5177825;28;20231;-78
2020/12/19 07:13:26;;;;;;;12.27;11.20;;;1.20;99.90;;;1.76;88.81;98252.91;5185846;28;20639;-78
2020/12/19 07:15:58;;;;;;;12.93;11.80;;;1.20;99.90;;;1.82;88.78;98256.75;5184521;28;20205;-78
2020/12/19 07:18:33;;;;;;;13.57;11.90;;;1.20;99.90;;;1.72;88.80;98253.34;5185564;28;20219;-78
2020/12/19 07:21:07;;;;;;;14.20;12.80;;;1.20;99.90;;;1.69;88.59;98257.19;5184331;28;20194;-79
2020/12/19 07:23:40;;;;;;;14.27;12.97;;;1.10;99.90;;;1.81;88.55;98260.91;5183761;28;20579;-76
2020/12/19 07:26:15;;;;;;;13.53;12.23;;;1.20;99.90;;;1.64;88.72;98251.72;5182523;28;20776;-76
2020/12/19 07:28:47;;;;;;;13.60;12.30;;;1.10;99.90;;;1.69;89.05;98257.19;5184082;28;20198;-77
2020/12/19 07:31:20;;;;;;;14.47;13.00;;;1.10;99.90;;;1.67;89.12;98251.13;5185930;28;20205;-76
2020/12/19 07:33:53;;;;;;;14.00;12.60;;;1.10;99.90;;;1.77;88.79;98254.69;5187218;28;20229;-76
2020/12/19 07:36:26;;;;;;;12.63;11.63;;;1.10;99.90;;;1.62;89.13;98253.19;5187266;28;20213;-77
2020/12/19 07:39:14;;;;;;;13.77;12.43;;;1.10;99.90;;;1.60;89.62;98257.16;5187566;28;20219;-77
2020/12/19 07:42:01;;;;;;;14.03;12.23;;;1.10;99.90;;;1.71;88.33;98264.16;5186594;28;20203;-78
2020/12/19 07:44:35;;;;;;;13.47;12.20;;;1.10;99.90;;;1.66;88.85;98261.91;5187041;28;20230;-79
2020/12/19 07:47:08;;;;;;;14.37;12.87;;;1.10;99.90;;;1.62;89.45;98260.75;5188255;28;20208;-79
2020/12/19 07:49:47;;;;;;;13.63;12.43;;;1.00;99.90;;;1.73;88.83;98256.75;5187424;28;20198;-78
2020/12/19 07:52:22;;;;;;;14.80;13.40;;;1.10;99.90;;;1.75;88.91;98272.91;5187626;28;20227;-78
2020/12/19 07:54:57;;;;;;;14.03;12.73;;;1.20;99.90;;;1.72;89.39;98268.47;5187457;28;20244;-78
2020/12/19 07:57:31;;;;;;;14.30;12.90;;;1.20;99.90;;;1.76;89.49;98270.53;5171049;28;20209;-78
2020/12/19 08:00:05;;;;;;;13.60;12.30;;;1.20;99.90;;;1.92;88.94;98274.56;5181194;28;20503;-79
2020/12/19 08:02:37;;;;;;;14.67;13.17;;;1.40;99.90;;;2.09;88.97;98272.03;5171391;28;20215;-79
2020/12/19 08:05:12;;;;;;;13.30;12.17;;;1.60;99.90;;;2.25;89.30;98279.41;5185823;28;20229;-76
2020/12/19 08:07:45;;;;;;;13.40;12.20;;;1.70;99.90;;;2.39;88.21;98279.09;5183529;28;20205;-76
2020/12/19 08:10:17;;;;;;;13.40;12.10;;;1.90;99.90;;;2.58;88.54;98280.84;5188961;28;20216;-77
2020/12/19 08:12:49;;;;;;;13.03;11.83;;;2.00;99.90;;;2.78;87.58;98273.50;5188164;28;20224;-76
2020/12/19 08:15:23;;;;;;;14.97;13.50;;;2.20;99.90;;;3.04;87.34;98275.03;5177788;28;20720;-76
2020/12/19 08:18:00;;;;;;;13.43;12.17;;;2.50;99.90;;;3.22;86.31;98273.31;5185980;28;20197;-76
2020/12/19 08:20:37;;;;;;;13.20;11.97;;;2.70;99.90;;;3.35;84.21;98273.69;5170358;28;20210;-76
2020/12/19 08:23:09;;;;;;;12.87;11.67;;;2.80;99.90;;;3.45;85.30;98266.19;5187897;28;20204;-77
2020/12/19 08:25:42;;;;;;;12.07;10.97;;;3.00;99.90;;;3.57;84.79;98267.28;5188501;28;20213;-77
2020/12/19 08:28:21;;;;;;;14.07;12.80;;;3.10;99.90;;;3.68;83.53;98264.84;5188331;28;20571;-77
2020/12/19 08:30:56;;;;;;;13.27;12.17;;;3.20;99.90;;;3.80;83.08;98260.88;5188036;28;20659;-76
2020/12/19 08:33:32;;;;;;;13.33;11.53;;;3.30;99.90;;;3.96;82.18;98258.97;5187999;28;20585;-76
2020/12/19 08:36:05;;;;;;;13.83;12.53;;;3.40;99.90;;;3.98;82.35;98267.59;5188359;28;20310;-76
2020/12/19 08:38:37;;;;;;;13.80;12.50;;;3.50;99.90;;;4.12;82.63;98271.34;5186645;28;20218;-76
2020/12/19 08:41:19;;;;;;;12.70;11.60;;;3.70;99.90;;;4.24;80.50;98266.50;5187203;28;20202;-76
2020/12/19 08:43:51;;;;;;;11.93;10.80;;;3.70;99.90;;;4.36;80.12;98269.19;5188526;28;20319;-77
2020/12/19 08:46:29;;;;;;;12.50;11.50;;;3.70;99.90;;;4.45;80.35;98270.88;5187499;28;20210;-76
2020/12/19 08:49:02;;;;;;;11.70;10.70;;;3.90;99.90;;;4.47;79.11;98269.38;5187405;28;20204;-79
2020/12/19 08:51:35;;;;;;;12.20;11.17;;;3.90;99.90;;;4.46;79.13;98272.66;5185809;28;20203;-77
2020/12/19 08:54:10;;;;;;;12.00;10.93;;;4.00;99.90;;;4.57;79.55;98272.69;5186240;28;20311;-77
2020/12/19 08:56:43;;;;;;;11.50;10.47;;;4.00;99.90;;;4.59;79.53;98274.59;5186499;28;20202;-77
2020/12/19 08:59:25;;;;;;;12.10;11.00;;;4.10;99.90;;;4.81;79.81;98273.91;5186847;28;20224;-76
2020/12/19 09:01:57;;;;;;;12.93;11.83;;;4.40;99.90;;;4.82;77.66;98266.47;5187559;28;20229;-76
2020/12/19 09:04:29;;;;;;;13.30;12.10;;;4.30;99.90;;;4.93;78.40;98270.78;5185479;28;20720;-76
2020/12/19 09:07:02;;;;;;;14.10;12.70;;;4.30;99.90;;;5.15;76.84;98265.91;5182608;28;20203;-77
2020/12/19 09:09:34;;;;;;;13.00;11.87;;;4.50;99.90;;;5.09;76.24;98269.56;5183834;28;20297;-78
2020/12/19 09:12:07;;;;;;;12.57;11.47;;;4.50;99.90;;;4.99;77.92;98279.69;5185249;28;20202;-77
2020/12/19 09:14:39;;;;;;;12.47;11.37;;;4.50;99.90;;;5.12;77.55;98282.47;5181658;28;20258;-77
2020/12/19 09:17:11;;;;;;;12.30;11.20;;;4.60;99.90;;;5.16;77.74;98271.88;5185098;28;20202;-77
2020/12/19 09:19:43;;;;;;;12.40;11.20;;;4.70;99.90;;;5.16;76.27;98275.28;5183575;28;20224;-78
2020/12/19 09:22:23;;;;;;;12.70;11.53;;;4.60;99.90;;;5.41;75.80;98273.16;5184299;28;20205;-76
2020/12/19 09:24:55;;;;;;;11.83;10.73;;;4.90;99.90;;;5.43;75.97;98270.75;5182740;28;20218;-77
2020/12/19 09:27:27;;;;;;;12.20;11.10;;;5.00;99.90;;;5.53;75.98;98275.81;5174585;28;20217;-77
2020/12/19 09:29:59;;;;;;;13.07;11.87;;;5.00;99.90;;;5.66;76.74;98275.19;5185045;28;20206;-77
2020/12/19 09:32:31;;;;;;;11.97;10.87;;;5.20;99.90;;;6.05;74.77;98281.78;5184512;28;20199;-77
2020/12/19 09:35:03;;;;;;;11.17;10.27;;;5.50;99.90;;;5.93;74.24;98285.84;5184574;28;20254;-77
2020/12/19 09:37:36;;;;;;;12.20;10.90;;;5.40;99.90;;;5.95;74.35;98281.78;5183464;28;20199;-77
2020/12/19 09:40:27;;;;;;;14.03;12.67;;;5.40;99.90;;;6.18;74.49;98279.47;5184988;28;20236;-78
2020/12/19 09:42:59;;;;;;;12.47;11.37;;;5.60;99.90;;;6.24;74.21;98282.50;5184272;28;20313;-77
2020/12/19 09:45:31;;;;;;;11.57;10.37;;;5.70;99.90;;;6.32;75.05;98278.94;5184371;28;20447;-78
2020/12/19 09:48:04;;;;;;;11.63;10.53;;;5.90;99.90;;;6.61;73.02;98282.91;5184419;28;20289;-78
2020/12/19 09:50:36;;;;;;;11.27;10.20;;;6.10;99.90;;;6.63;73.40;98271.19;5185450;28;20538;-78
2020/12/19 09:53:09;;;;;;;11.70;10.60;;;6.10;99.90;;;6.92;71.40;98267.50;5183802;28;20245;-79
2020/12/19 09:55:41;;;;;;;11.90;10.50;;;6.30;99.90;;;6.82;71.80;98271.00;5185064;28;20218;-79
2020/12/19 09:58:13;;;;;;;11.00;10.10;;;6.30;99.90;;;6.72;71.71;98271.94;5184783;28;20206;-78
2020/12/19 10:00:45;;;;;;;12.57;11.30;;;6.20;99.90;;;6.80;71.91;98271.63;5184628;28;20281;-78
2020/12/19 10:03:18;;;;;;;11.13;10.03;;;6.30;99.90;;;6.83;70.70;98279.50;5168124;28;20195;-78
2020/12/19 10:05:50;;;;;;;11.63;10.47;;;6.20;99.90;;;6.72;71.81;98271.94;5175575;28;20242;-78
2020/12/19 10:08:24;;;;;;;11.77;10.67;;;6.20;99.90;;;6.72;71.53;98268.50;5180284;28;20585;-78
2020/12/19 10:10:56;;;;;;;11.13;10.23;;;6.20;99.90;;;6.91;69.38;98265.75;5192788;28;20214;-78
2020/12/19 10:13:28;;;;;;;10.50;9.60;;;6.30;99.90;;;6.99;71.33;98259.59;5193784;28;20206;-76
2020/12/19 10:16:00;;;;;;;10.40;9.50;;;6.50;99.90;;;7.27;70.41;98248.97;5192274;28;20268;-78
2020/12/19 10:18:32;;;;;;;10.80;9.77;;;6.60;99.90;;;7.33;70.92;98249.47;5205010;28;20229;-78
2020/12/19 10:21:07;;;;;;;11.23;10.23;;;6.80;99.90;;;7.53;69.52;98254.41;5197814;28;20234;-77
2020/12/19 10:23:40;;;;;;;11.50;10.40;;;7.00;99.90;;;7.45;69.22;98255.47;5175620;28;20202;-78
2020/12/19 10:26:12;;;;;;;10.63;9.67;;;6.90;99.90;;;7.59;68.37;98249.78;5183153;28;20220;-79
2020/12/19 10:28:45;;;;;;;12.67;10.60;;;7.00;99.90;;;7.58;68.61;98245.47;5181538;28;20253;-78
2020/12/19 10:31:17;;;;;;;10.40;9.60;;;7.00;99.90;;;7.73;68.09;98242.28;5185203;28;20199;-78
2020/12/19 10:33:49;;;;;;;10.23;9.43;;;7.20;99.90;;;7.92;67.49;98235.22;5184095;28;20311;-78
2020/12/19 10:36:21;;;;;;;10.57;9.67;;;7.40;99.90;;;7.84;67.67;98237.22;5184532;28;20294;-78
2020/12/19 10:38:54;;;;;;;10.90;9.90;;;7.30;99.90;;;7.71;68.23;98234.53;5183187;28;20214;-78
2020/12/19 10:41:26;;;;;;;11.10;10.07;;;7.20;99.90;;;7.87;68.38;98231.47;5183226;28;20248;-77
2020/12/19 10:43:58;;;;;;;9.23;8.53;;;7.40;99.90;;;7.70;68.77;98229.31;5190666;28;20301;-78
2020/12/19 10:46:31;;;;;;;11.90;9.60;;;7.20;99.90;;;7.59;68.96;98243.81;5182358;28;20205;-78
2020/12/19 10:49:03;;;;;;;10.77;9.67;;;7.10;99.90;;;7.61;69.24;98227.88;5204466;28;20558;-78